Time;durP1;ratioP1;P1;durP2;ratioP2;P2;SDS_P1;SDS_P2;PMS_P1;PMS_P2;Temp;Humidity;BMP_temperature;BMP_pressure;BME280_temperature;BME280_humidity;BME280_pressure;Samples;Min_cycle;Max_cycle;Signal;HPM_P1;HPM_P2
2022/06/04 08:51:53;;;;;;;4.50;3.43;;;;;;;;;;4844667;23;20252;-53
2022/06/04 08:59:57;;;;;;;4.57;4.00;;;;;;;;;;4951695;29;20288;-54
2022/06/04 09:02:29;;;;;;;5.53;3.70;;;;;;;;;;4944860;29;20168;-53
2022/06/04 09:05:03;;;;;;;3.77;3.47;;;;;;;;;;4946705;29;20177;-55
2022/06/04 09:07:34;;;;;;;4.93;3.40;;;;;;;;;;4940848;29;20165;-50
2022/06/04 09:10:12;;;;;;;3.00;2.80;;;;;;;;;;4943024;29;20193;-54
2022/06/04 09:12:45;;;;;;;3.43;3.20;;;;;;;;;;4942639;29;20170;-53
2022/06/04 09:15:24;;;;;;;3.63;3.33;;;;;;;;;;4944031;29;20173;-55
2022/06/04 09:17:54;;;;;;;3.97;3.57;;;;;;;;;;4942783;29;20169;-54
2022/06/04 09:20:23;;;;;;;3.90;3.60;;;;;;;;;;4944208;29;20603;-54
2022/06/04 09:22:51;;;;;;;3.70;3.50;;;;;;;;;;4940642;29;20225;-54
2022/06/04 09:25:20;;;;;;;3.67;3.37;;;;;;;;;;4945131;29;20169;-52
2022/06/04 09:28:04;;;;;;;4.23;3.17;;;;;;;;;;4941994;29;20164;-55
2022/06/04 09:30:36;;;;;;;3.30;3.10;;;;;;;;;;4933889;29;20531;-51
2022/06/04 09:33:14;;;;;;;4.10;3.80;;;;;;;;;;4951769;29;20186;-53
2022/06/04 09:35:41;;;;;;;4.80;3.60;;;;;;;;;;4952221;29;20168;-53
2022/06/04 09:38:28;;;;;;;5.30;3.70;;;;;;;;;;4953207;29;20173;-54
2022/06/04 09:40:58;;;;;;;3.47;3.20;;;;;;;;;;4952580;29;20685;-54
2022/06/04 09:43:24;;;;;;;4.47;3.70;;;;;;;;;;4953074;29;20524;-55
2022/06/04 09:45:52;;;;;;;4.07;3.70;;;;;;;;;;4952658;29;20191;-54
2022/06/04 09:48:26;;;;;;;3.80;3.50;;;;;;;;;;4952825;28;20655;-54
2022/06/04 09:50:54;;;;;;;4.43;3.10;;;;;;;;;;4941204;28;20295;-50
2022/06/04 09:53:27;;;;;;;3.07;2.87;;;;;;;;;;4931950;29;20581;-55
2022/06/04 09:56:06;;;;;;;3.37;3.07;;;;;;;;;;4933755;29;20169;-54
2022/06/04 09:58:52;;;;;;;3.77;3.40;;;;;;;;;;4932918;29;20212;-54
2022/06/04 10:01:19;;;;;;;3.27;2.97;;;;;;;;;;4915353;29;20184;-53
2022/06/04 10:03:45;;;;;;;4.87;3.30;;;;;;;;;;4932645;29;20584;-55
2022/06/04 10:06:16;;;;;;;3.70;3.40;;;;;;;;;;4932005;29;20229;-53
2022/06/04 10:11:49;;;;;;;3.57;3.37;;;;;;;;;;4933281;29;20272;-53
2022/06/04 10:14:15;;;;;;;3.60;3.03;;;;;;;;;;4932974;29;20190;-54
2022/06/04 10:16:45;;;;;;;3.27;2.97;;;;;;;;;;4932900;29;20177;-55
2022/06/04 10:19:21;;;;;;;4.33;3.40;;;;;;;;;;4933181;29;20300;-54
2022/06/04 10:24:54;;;;;;;3.03;2.83;;;;;;;;;;4928964;29;20200;-53
2022/06/04 10:27:22;;;;;;;3.77;3.47;;;;;;;;;;4913721;29;20178;-55
2022/06/04 10:30:07;;;;;;;4.17;2.83;;;;;;;;;;4922778;29;20221;-52
2022/06/04 10:32:42;;;;;;;3.43;3.23;;;;;;;;;;4895176;29;20610;-54
2022/06/04 10:35:14;;;;;;;3.10;2.90;;;;;;;;;;4914402;29;20701;-51
2022/06/04 10:37:59;;;;;;;3.40;3.10;;;;;;;;;;4931746;29;20157;-55
2022/06/04 10:40:34;;;;;;;3.17;2.97;;;;;;;;;;4932582;29;20189;-54
2022/06/04 10:43:00;;;;;;;3.17;2.97;;;;;;;;;;4932436;29;20176;-55
2022/06/04 10:45:33;;;;;;;4.13;3.03;;;;;;;;;;4932715;29;20170;-55
2022/06/04 10:48:11;;;;;;;3.40;3.20;;;;;;;;;;4932438;29;20224;-54
2022/06/04 10:53:52;;;;;;;3.17;2.97;;;;;;;;;;4931996;29;20185;-52
2022/06/04 10:56:20;;;;;;;3.43;2.93;;;;;;;;;;4931972;29;20248;-55
2022/06/04 10:58:51;;;;;;;3.73;3.30;;;;;;;;;;4932010;29;20250;-55
2022/06/04 11:01:20;;;;;;;4.33;2.90;;;;;;;;;;4932118;29;20170;-55
2022/06/04 11:04:08;;;;;;;4.20;2.90;;;;;;;;;;4931594;29;20660;-56
2022/06/04 11:06:38;;;;;;;3.30;2.97;;;;;;;;;;4931405;29;20239;-56
2022/06/04 11:09:14;;;;;;;4.70;2.90;;;;;;;;;;4931485;29;20206;-55
2022/06/04 11:11:43;;;;;;;4.23;3.43;;;;;;;;;;4923918;29;20635;-56
2022/06/04 11:14:13;;;;;;;3.53;3.23;;;;;;;;;;4922433;29;20277;-55
2022/06/04 11:16:41;;;;;;;4.00;3.60;;;;;;;;;;4931820;29;20530;-55
2022/06/04 11:19:12;;;;;;;3.27;2.97;;;;;;;;;;4923320;29;20230;-56
2022/06/04 11:22:01;;;;;;;3.87;3.57;;;;;;;;;;4893185;29;20527;-56
2022/06/04 11:24:38;;;;;;;3.33;3.07;;;;;;;;;;4895179;29;20208;-56
2022/06/04 11:27:15;;;;;;;3.47;3.17;;;;;;;;;;4931413;29;20172;-54
2022/06/04 11:29:41;;;;;;;3.30;3.10;;;;;;;;;;4930793;29;20583;-57
2022/06/04 11:32:12;;;;;;;6.63;4.13;;;;;;;;;;4931018;29;20180;-53
2022/06/04 11:34:53;;;;;;;4.87;4.47;;;;;;;;;;4931101;29;20177;-55
2022/06/04 11:37:29;;;;;;;5.47;4.97;;;;;;;;;;4930755;29;20621;-54
2022/06/04 11:40:14;;;;;;;4.40;4.10;;;;;;;;;;4915266;29;20181;-55
2022/06/04 11:42:52;;;;;;;4.87;3.90;;;;;;;;;;4912463;29;20186;-56
2022/06/04 11:45:27;;;;;;;4.27;3.87;;;;;;;;;;4931389;29;20181;-56
2022/06/04 11:47:56;;;;;;;3.67;3.20;;;;;;;;;;4930648;29;20264;-56
2022/06/04 11:50:33;;;;;;;3.87;3.57;;;;;;;;;;4931112;29;20198;-55
2022/06/04 11:53:22;;;;;;;3.70;3.40;;;;;;;;;;4930180;29;20308;-54
2022/06/04 11:55:51;;;;;;;3.03;2.73;;;;;;;;;;4911396;29;20198;-56
2022/06/04 11:58:26;;;;;;;4.27;3.70;;;;;;;;;;4930637;29;20177;-56
2022/06/04 12:00:55;;;;;;;3.67;3.37;;;;;;;;;;4930142;29;20264;-56
2022/06/04 12:03:21;;;;;;;4.87;4.53;;;;;;;;;;4913514;29;20573;-54
2022/06/04 12:05:47;;;;;;;3.87;3.53;;;;;;;;;;4929985;29;20256;-56
2022/06/04 12:08:17;;;;;;;4.20;3.80;;;;;;;;;;4930026;29;20480;-56
2022/06/04 12:10:50;;;;;;;3.60;3.40;;;;;;;;;;4930743;29;20181;-56
2022/06/04 12:13:23;;;;;;;3.67;3.37;;;;;;;;;;4930447;29;20244;-56
2022/06/04 12:15:49;;;;;;;4.23;3.80;;;;;;;;;;4930227;29;20589;-56
2022/06/04 12:18:35;;;;;;;5.27;3.80;;;;;;;;;;4930050;29;20691;-55
2022/06/04 12:26:41;;;;;;;3.77;3.43;;;;;;;;;;4930654;29;20180;-56
2022/06/04 12:29:26;;;;;;;3.60;3.40;;;;;;;;;;4912887;29;20608;-56
2022/06/04 12:31:59;;;;;;;3.30;3.10;;;;;;;;;;4929884;29;20162;-56
2022/06/04 12:34:27;;;;;;;4.47;4.03;;;;;;;;;;4930279;29;20174;-56
2022/06/04 12:36:54;;;;;;;3.97;3.60;;;;;;;;;;4929366;29;20189;-55
2022/06/04 12:39:31;;;;;;;4.00;3.57;;;;;;;;;;4929691;29;20184;-52
2022/06/04 12:41:59;;;;;;;3.80;3.37;;;;;;;;;;4897058;29;20277;-56
2022/06/04 12:44:33;;;;;;;3.97;3.67;;;;;;;;;;4904955;29;20651;-55
2022/06/04 12:47:13;;;;;;;3.47;3.23;;;;;;;;;;4909671;29;20591;-55
2022/06/04 12:50:06;;;;;;;3.70;3.13;;;;;;;;;;4925079;29;20568;-56
2022/06/04 12:52:36;;;;;;;4.53;3.80;;;;;;;;;;4917118;29;20240;-56
2022/06/04 12:55:02;;;;;;;3.60;3.30;;;;;;;;;;4930540;29;20236;-56
2022/06/04 12:57:38;;;;;;;3.83;3.53;;;;;;;;;;4929740;29;20172;-56
2022/06/04 13:00:27;;;;;;;3.90;3.27;;;;;;;;;;4930351;29;20537;-56
2022/06/04 13:03:01;;;;;;;5.17;3.77;;;;;;;;;;4907845;29;20198;-54
2022/06/04 13:05:28;;;;;;;3.27;2.97;;;;;;;;;;4911475;29;20180;-55
2022/06/04 13:08:01;;;;;;;4.17;3.63;;;;;;;;;;4910513;29;20258;-54
2022/06/04 13:10:31;;;;;;;5.53;4.17;;;;;;;;;;4929130;29;20189;-55
2022/06/04 13:13:12;;;;;;;4.10;3.70;;;;;;;;;;4928819;29;20173;-56
2022/06/04 13:15:52;;;;;;;3.67;3.37;;;;;;;;;;4929754;29;20575;-55
2022/06/04 13:18:20;;;;;;;4.13;3.83;;;;;;;;;;4929897;29;20319;-56
2022/06/04 13:20:48;;;;;;;4.10;3.80;;;;;;;;;;4911972;29;20198;-55
2022/06/04 13:23:32;;;;;;;3.73;3.47;;;;;;;;;;4913811;29;20185;-55
2022/06/04 13:26:01;;;;;;;3.73;3.43;;;;;;;;;;4929713;29;20208;-54
2022/06/04 13:28:33;;;;;;;3.60;3.40;;;;;;;;;;4931193;29;20553;-56
2022/06/04 13:31:03;;;;;;;3.70;3.40;;;;;;;;;;4933508;29;20166;-55
2022/06/04 13:33:29;;;;;;;3.70;3.40;;;;;;;;;;4931976;29;20599;-56
2022/06/04 13:36:00;;;;;;;5.00;3.87;;;;;;;;;;4932695;29;20500;-54
2022/06/04 13:38:29;;;;;;;3.87;3.60;;;;;;;;;;4933681;29;20228;-53
2022/06/04 13:41:00;;;;;;;3.47;3.17;;;;;;;;;;4933326;29;20785;-54
2022/06/04 13:43:26;;;;;;;3.30;3.00;;;;;;;;;;4933182;29;20264;-55
2022/06/04 13:45:52;;;;;;;3.83;3.53;;;;;;;;;;4932954;29;20201;-53
2022/06/04 13:48:21;;;;;;;3.57;3.37;;;;;;;;;;4933179;29;20204;-56
2022/06/04 13:50:49;;;;;;;3.67;3.47;;;;;;;;;;4932694;28;20660;-55
2022/06/04 13:53:20;;;;;;;4.00;3.70;;;;;;;;;;4933077;29;20289;-55
2022/06/04 13:55:55;;;;;;;3.77;3.47;;;;;;;;;;4932864;29;20158;-55
2022/06/04 13:58:21;;;;;;;5.13;3.80;;;;;;;;;;4932934;29;20480;-55
2022/06/04 14:00:49;;;;;;;3.67;3.33;;;;;;;;;;4931405;29;20169;-54
2022/06/04 14:03:35;;;;;;;6.27;5.77;;;;;;;;;;4932639;29;20200;-56
2022/06/04 14:06:02;;;;;;;4.17;3.87;;;;;;;;;;4931333;29;21078;-55
2022/06/04 14:08:30;;;;;;;4.03;3.73;;;;;;;;;;4932585;29;20260;-55
2022/06/04 14:11:02;;;;;;;3.87;3.57;;;;;;;;;;4932579;29;20161;-55
2022/06/04 14:13:38;;;;;;;3.80;3.47;;;;;;;;;;4932277;29;20536;-55
2022/06/04 14:16:20;;;;;;;3.70;3.40;;;;;;;;;;4932366;29;20218;-54
2022/06/04 14:18:46;;;;;;;4.33;4.00;;;;;;;;;;4932675;29;20192;-54
2022/06/04 14:21:20;;;;;;;4.70;4.30;;;;;;;;;;4931441;29;20173;-53
2022/06/04 14:24:09;;;;;;;3.60;3.30;;;;;;;;;;4932710;29;20292;-55
2022/06/04 14:26:44;;;;;;;3.97;3.67;;;;;;;;;;4932793;29;20640;-54
2022/06/04 14:29:13;;;;;;;3.93;3.40;;;;;;;;;;4932196;29;20234;-55
2022/06/04 14:31:39;;;;;;;3.60;3.30;;;;;;;;;;4932097;29;20510;-55
2022/06/04 14:34:07;;;;;;;3.97;3.67;;;;;;;;;;4932229;29;20232;-54
2022/06/04 14:36:33;;;;;;;4.13;3.73;;;;;;;;;;4930848;29;20622;-55
2022/06/04 14:39:01;;;;;;;3.73;3.43;;;;;;;;;;4931704;29;20629;-55
2022/06/04 14:41:27;;;;;;;4.03;3.73;;;;;;;;;;4919400;29;20190;-55
2022/06/04 14:44:11;;;;;;;3.80;3.50;;;;;;;;;;4921474;29;20539;-55
2022/06/04 14:46:37;;;;;;;4.23;3.83;;;;;;;;;;4932129;29;20165;-54
2022/06/04 14:49:05;;;;;;;3.77;3.47;;;;;;;;;;4931935;29;20599;-54
2022/06/04 14:51:49;;;;;;;4.03;3.73;;;;;;;;;;4928889;29;20690;-55
2022/06/04 14:54:22;;;;;;;3.97;3.30;;;;;;;;;;4932128;29;20174;-55
2022/06/04 14:56:58;;;;;;;4.00;3.67;;;;;;;;;;4931699;29;20640;-54
2022/06/04 14:59:42;;;;;;;3.57;3.37;;;;;;;;;;4931832;29;20181;-56
2022/06/04 15:02:26;;;;;;;4.27;3.87;;;;;;;;;;4931922;29;20182;-54
2022/06/04 15:05:00;;;;;;;4.60;4.20;;;;;;;;;;4931895;29;20263;-55
2022/06/04 15:07:40;;;;;;;3.77;3.47;;;;;;;;;;4929771;29;20177;-55
2022/06/04 15:10:15;;;;;;;3.63;3.33;;;;;;;;;;4931736;29;20190;-54
2022/06/04 15:12:41;;;;;;;3.40;3.10;;;;;;;;;;4931435;29;20172;-55
2022/06/04 15:15:07;;;;;;;3.60;3.40;;;;;;;;;;4931713;29;20188;-56
2022/06/04 15:17:39;;;;;;;4.07;3.77;;;;;;;;;;4929805;29;20254;-56
2022/06/04 15:20:16;;;;;;;6.93;6.17;;;;;;;;;;4931939;29;20192;-55
2022/06/04 15:22:54;;;;;;;9.03;8.23;;;;;;;;;;4930871;29;20170;-57
2022/06/04 15:25:32;;;;;;;11.43;10.47;;;;;;;;;;4931519;29;20163;-55
2022/06/04 15:28:04;;;;;;;7.43;6.80;;;;;;;;;;4931850;29;20763;-55
2022/06/04 15:36:20;;;;;;;7.70;7.00;;;;;;;;;;4930592;29;20200;-56
2022/06/04 15:38:49;;;;;;;8.33;7.60;;;;;;;;;;4931109;29;20168;-52
2022/06/04 15:41:21;;;;;;;6.83;6.23;;;;;;;;;;4931529;29;20172;-56
2022/06/04 15:44:01;;;;;;;6.53;5.93;;;;;;;;;;4931128;29;20808;-56
2022/06/04 15:46:37;;;;;;;6.37;5.60;;;;;;;;;;4931096;29;20193;-56
2022/06/04 15:49:11;;;;;;;5.60;5.10;;;;;;;;;;4931327;29;20393;-56
2022/06/04 15:57:29;;;;;;;5.33;4.93;;;;;;;;;;4931193;29;20254;-55
2022/06/04 15:59:58;;;;;;;5.37;4.97;;;;;;;;;;4915505;29;20532;-55
2022/06/04 16:02:31;;;;;;;5.80;5.30;;;;;;;;;;4912136;29;20202;-56
2022/06/04 16:04:58;;;;;;;5.47;4.97;;;;;;;;;;4927811;29;20182;-55
2022/06/04 16:07:24;;;;;;;4.50;4.10;;;;;;;;;;4929312;29;20186;-54
2022/06/04 16:10:06;;;;;;;5.10;4.77;;;;;;;;;;4916114;29;20310;-56
2022/06/04 16:12:38;;;;;;;4.57;4.27;;;;;;;;;;4911594;29;20205;-56
2022/06/04 16:15:10;;;;;;;4.87;4.47;;;;;;;;;;4928865;29;20195;-55
2022/06/04 16:17:54;;;;;;;4.40;4.10;;;;;;;;;;4930370;29;20645;-56
2022/06/04 16:20:30;;;;;;;4.83;4.40;;;;;;;;;;4931600;29;20659;-55
2022/06/04 16:23:14;;;;;;;4.50;4.20;;;;;;;;;;4929072;29;20179;-56
2022/06/04 16:25:43;;;;;;;5.10;4.70;;;;;;;;;;4930678;29;20275;-56
2022/06/04 16:28:33;;;;;;;4.30;4.00;;;;;;;;;;4930212;29;20190;-56
2022/06/04 16:31:02;;;;;;;6.40;5.03;;;;;;;;;;4924937;29;20266;-56
2022/06/04 16:33:28;;;;;;;5.30;3.93;;;;;;;;;;4929746;29;20175;-56
2022/06/04 16:36:02;;;;;;;4.53;4.23;;;;;;;;;;4929305;29;20305;-56
2022/06/04 16:38:37;;;;;;;4.63;3.83;;;;;;;;;;4929881;29;20189;-56
2022/06/04 16:43:55;;;;;;;4.47;4.07;;;;;;;;;;4918905;29;20799;-55
2022/06/04 16:46:24;;;;;;;4.43;4.13;;;;;;;;;;4930056;29;20168;-55
2022/06/04 16:48:50;;;;;;;4.30;3.90;;;;;;;;;;4929635;29;20202;-55
2022/06/04 16:51:16;;;;;;;3.40;3.17;;;;;;;;;;4929259;28;20680;-56
2022/06/04 16:53:43;;;;;;;4.00;3.70;;;;;;;;;;4930054;29;20687;-57
2022/06/04 16:56:09;;;;;;;3.77;3.37;;;;;;;;;;4930086;29;20167;-52
2022/06/04 16:58:36;;;;;;;3.63;3.43;;;;;;;;;;4929768;29;20648;-56
2022/06/04 17:01:12;;;;;;;3.97;3.67;;;;;;;;;;4930065;29;20166;-55
2022/06/04 17:03:41;;;;;;;3.93;3.63;;;;;;;;;;4933787;29;20264;-55
2022/06/04 17:06:17;;;;;;;4.30;4.00;;;;;;;;;;4933177;29;20598;-56
2022/06/04 17:09:03;;;;;;;3.93;3.73;;;;;;;;;;4927109;29;20256;-54
2022/06/04 17:11:35;;;;;;;4.43;3.33;;;;;;;;;;4914785;29;20671;-55
2022/06/04 17:14:08;;;;;;;3.57;3.37;;;;;;;;;;4914663;29;20178;-54
2022/06/04 17:16:42;;;;;;;3.77;3.47;;;;;;;;;;4915046;29;20177;-54
2022/06/04 17:19:24;;;;;;;3.00;2.80;;;;;;;;;;4914332;29;20178;-54
2022/06/04 17:22:02;;;;;;;4.17;3.77;;;;;;;;;;4913437;29;20550;-52
2022/06/04 17:24:51;;;;;;;3.70;3.40;;;;;;;;;;4914361;29;20593;-53
2022/06/04 17:27:38;;;;;;;4.07;3.33;;;;;;;;;;4914291;29;20173;-54
2022/06/04 17:30:18;;;;;;;3.70;3.40;;;;;;;;;;4910220;29;20316;-55
2022/06/04 17:32:56;;;;;;;3.83;3.53;;;;;;;;;;4914630;29;20298;-55
2022/06/04 17:35:33;;;;;;;3.57;3.37;;;;;;;;;;4914785;29;20237;-54
2022/06/04 17:38:14;;;;;;;3.83;3.53;;;;;;;;;;4913847;29;20170;-54
2022/06/04 17:40:51;;;;;;;3.20;2.90;;;;;;;;;;4932936;29;20340;-55
2022/06/04 17:43:17;;;;;;;3.37;3.17;;;;;;;;;;4932570;29;20616;-56
2022/06/04 17:45:46;;;;;;;4.37;4.03;;;;;;;;;;4915907;29;20225;-56
2022/06/04 17:48:13;;;;;;;4.93;3.40;;;;;;;;;;4932400;29;20747;-55
2022/06/04 17:50:39;;;;;;;4.00;3.70;;;;;;;;;;4931736;29;20576;-52
2022/06/04 17:53:05;;;;;;;3.90;3.60;;;;;;;;;;4932204;28;20229;-53
2022/06/04 17:55:31;;;;;;;3.97;3.63;;;;;;;;;;4933123;29;20245;-53
2022/06/04 17:57:57;;;;;;;4.00;3.67;;;;;;;;;;4931863;29;20188;-54
2022/06/04 18:00:23;;;;;;;4.80;4.00;;;;;;;;;;4933341;29;20178;-54
2022/06/04 18:02:52;;;;;;;6.30;3.40;;;;;;;;;;4932951;29;20233;-54
2022/06/04 18:05:20;;;;;;;3.90;3.60;;;;;;;;;;4913982;29;20182;-54
2022/06/04 18:07:46;;;;;;;3.80;3.40;;;;;;;;;;4912995;29;20257;-51
2022/06/04 18:10:12;;;;;;;4.00;3.70;;;;;;;;;;4896646;29;20218;-54
2022/06/04 18:12:39;;;;;;;5.33;3.83;;;;;;;;;;4893240;29;20547;-55
2022/06/04 18:15:05;;;;;;;3.83;3.53;;;;;;;;;;4928418;29;20174;-56
2022/06/04 18:17:32;;;;;;;3.10;2.90;;;;;;;;;;4932331;29;20205;-52
2022/06/04 18:19:59;;;;;;;3.67;3.37;;;;;;;;;;4931796;29;20557;-54
2022/06/04 18:22:26;;;;;;;4.23;3.33;;;;;;;;;;4914241;29;20193;-54
2022/06/04 18:24:55;;;;;;;4.17;3.50;;;;;;;;;;4931489;29;20166;-55
2022/06/04 18:27:21;;;;;;;3.93;3.63;;;;;;;;;;4932446;29;20232;-53
2022/06/04 18:29:47;;;;;;;3.90;3.60;;;;;;;;;;4931811;29;20212;-53
2022/06/04 18:32:14;;;;;;;4.40;4.00;;;;;;;;;;4932438;29;20647;-54
2022/06/04 18:34:40;;;;;;;3.37;3.17;;;;;;;;;;4917668;29;20170;-54
2022/06/04 18:37:07;;;;;;;4.67;4.27;;;;;;;;;;4910698;29;20289;-54
2022/06/04 18:39:33;;;;;;;3.97;3.67;;;;;;;;;;4926025;29;20212;-53
2022/06/04 18:41:59;;;;;;;4.60;3.60;;;;;;;;;;4915150;29;20673;-53
2022/06/04 18:55:30;;;;;;;3.73;3.43;;;;;;;;;;4894249;29;20283;-53
2022/06/04 18:57:57;;;;;;;4.63;4.10;;;;;;;;;;4893378;29;20928;-54
2022/06/04 19:00:23;;;;;;;3.50;3.20;;;;;;;;;;4893760;29;20570;-54
2022/06/04 19:02:50;;;;;;;3.83;3.53;;;;;;;;;;4893111;29;20665;-53
2022/06/04 19:05:16;;;;;;;5.27;4.87;;;;;;;;;;4912522;29;20199;-54
2022/06/04 19:15:56;;;;;;;4.93;4.30;;;;;;;;;;4908646;29;20174;-54
2022/06/04 19:18:22;;;;;;;3.73;3.47;;;;;;;;;;4907837;29;20596;-51
2022/06/04 19:26:18;;;;;;;3.83;3.53;;;;;;;;;;4910864;29;20241;-55
2022/06/04 19:28:44;;;;;;;4.57;3.30;;;;;;;;;;4912768;29;20747;-53
2022/06/04 19:31:11;;;;;;;3.73;3.43;;;;;;;;;;4896018;29;20186;-55
2022/06/04 19:33:37;;;;;;;3.73;3.43;;;;;;;;;;4899613;29;20187;-57
2022/06/04 19:36:04;;;;;;;5.10;3.60;;;;;;;;;;4894604;29;20181;-56
2022/06/04 19:38:30;;;;;;;6.63;3.17;;;;;;;;;;4912433;29;20201;-55
2022/06/04 19:40:56;;;;;;;4.03;3.20;;;;;;;;;;4912954;29;20570;-54
2022/06/04 19:43:22;;;;;;;3.40;3.20;;;;;;;;;;4912515;29;20256;-55
2022/06/04 19:45:48;;;;;;;3.00;2.80;;;;;;;;;;4912966;29;20632;-54
2022/06/04 19:48:16;;;;;;;3.60;3.40;;;;;;;;;;4912559;29;20191;-54
2022/06/04 19:50:42;;;;;;;3.23;3.00;;;;;;;;;;4894150;29;20202;-55
2022/06/04 19:55:55;;;;;;;3.90;3.57;;;;;;;;;;4931066;29;20200;-53
2022/06/04 20:01:25;;;;;;;4.00;3.60;;;;;;;;;;4911685;29;20283;-55
2022/06/04 20:03:51;;;;;;;5.20;4.10;;;;;;;;;;4919617;29;20185;-55
2022/06/04 20:06:18;;;;;;;3.43;3.23;;;;;;;;;;4929745;29;20174;-56
2022/06/04 20:08:44;;;;;;;3.00;2.80;;;;;;;;;;4920389;29;20724;-56
2022/06/04 20:11:13;;;;;;;3.60;3.30;;;;;;;;;;4893375;29;20155;-57
2022/06/04 20:13:43;;;;;;;3.50;3.20;;;;;;;;;;4905691;29;20521;-57
2022/06/04 20:16:10;;;;;;;3.90;3.60;;;;;;;;;;4931178;29;20593;-56
2022/06/04 20:18:37;;;;;;;3.30;3.10;;;;;;;;;;4931090;29;20707;-58
2022/06/04 20:21:07;;;;;;;4.23;3.10;;;;;;;;;;4930354;29;20722;-58
2022/06/04 20:23:35;;;;;;;3.30;3.10;;;;;;;;;;4915319;29;20182;-57
2022/06/04 20:26:01;;;;;;;3.37;3.07;;;;;;;;;;4912266;29;20174;-58
2022/06/04 20:28:27;;;;;;;3.63;3.10;;;;;;;;;;4912192;29;20524;-58
2022/06/04 20:30:57;;;;;;;3.37;3.17;;;;;;;;;;4912101;29;20206;-58
2022/06/04 20:33:23;;;;;;;3.60;3.30;;;;;;;;;;4911798;29;20170;-58
2022/06/04 20:35:50;;;;;;;3.87;3.10;;;;;;;;;;4910755;29;20626;-57
2022/06/04 20:38:17;;;;;;;3.60;3.30;;;;;;;;;;4913884;29;20228;-57
2022/06/04 20:40:43;;;;;;;3.93;3.53;;;;;;;;;;4915802;29;20508;-57
2022/06/04 20:43:09;;;;;;;3.60;3.30;;;;;;;;;;4917729;29;20269;-55
2022/06/04 20:45:39;;;;;;;4.67;3.30;;;;;;;;;;4934757;29;20724;-58
2022/06/04 20:48:06;;;;;;;3.53;3.33;;;;;;;;;;4934595;29;20245;-57
2022/06/04 20:50:32;;;;;;;3.70;3.40;;;;;;;;;;4934792;29;20652;-57
2022/06/04 20:53:11;;;;;;;3.27;3.07;;;;;;;;;;4906103;29;20285;-57
2022/06/04 20:55:41;;;;;;;7.27;3.63;;;;;;;;;;4915704;29;20241;-57
2022/06/04 20:58:07;;;;;;;3.67;3.30;;;;;;;;;;4896306;29;20277;-56
2022/06/04 21:00:35;;;;;;;3.60;3.30;;;;;;;;;;4916003;29;20230;-57
2022/06/04 21:03:01;;;;;;;3.33;3.13;;;;;;;;;;4898410;29;20598;-57
2022/06/04 21:05:27;;;;;;;3.13;2.93;;;;;;;;;;4902351;29;20190;-57
2022/06/04 21:07:56;;;;;;;3.83;2.83;;;;;;;;;;4895741;29;20623;-56
2022/06/04 21:10:22;;;;;;;3.47;3.27;;;;;;;;;;4915664;29;20241;-56
2022/06/04 21:12:48;;;;;;;3.63;3.33;;;;;;;;;;4915547;29;20167;-57
2022/06/04 21:15:14;;;;;;;4.10;3.80;;;;;;;;;;4897247;29;20704;-55
2022/06/04 21:17:40;;;;;;;3.63;3.43;;;;;;;;;;4896246;29;20664;-55
2022/06/04 21:20:07;;;;;;;3.37;3.10;;;;;;;;;;4895138;29;20194;-56
2022/06/04 21:22:33;;;;;;;4.77;3.33;;;;;;;;;;4894102;29;20182;-56
2022/06/04 21:24:59;;;;;;;4.00;3.63;;;;;;;;;;4896303;29;20646;-56
2022/06/04 21:27:25;;;;;;;3.67;3.40;;;;;;;;;;4896295;29;20558;-53
2022/06/04 21:29:52;;;;;;;3.50;3.17;;;;;;;;;;4896746;29;20202;-55
2022/06/04 21:32:18;;;;;;;3.67;3.47;;;;;;;;;;4895985;29;20653;-56
2022/06/04 21:37:41;;;;;;;4.10;3.50;;;;;;;;;;4904560;29;20265;-54
2022/06/04 21:40:12;;;;;;;4.30;3.90;;;;;;;;;;4896835;29;20609;-55
2022/06/04 21:42:38;;;;;;;3.80;3.50;;;;;;;;;;4895574;29;20189;-53
2022/06/04 21:45:05;;;;;;;4.13;3.60;;;;;;;;;;4895988;29;20689;-54
2022/06/04 21:47:31;;;;;;;4.33;3.70;;;;;;;;;;4896160;29;20273;-54
2022/06/04 21:49:57;;;;;;;3.80;3.50;;;;;;;;;;4893129;29;20222;-53
2022/06/04 21:52:23;;;;;;;3.87;3.57;;;;;;;;;;4894881;29;20679;-54
2022/06/04 21:54:49;;;;;;;4.00;3.70;;;;;;;;;;4899228;29;20212;-53
2022/06/04 21:57:18;;;;;;;3.93;3.63;;;;;;;;;;4893405;29;20595;-54
2022/06/04 21:59:44;;;;;;;4.03;3.63;;;;;;;;;;4895352;29;20612;-54
2022/06/04 22:02:10;;;;;;;4.57;3.53;;;;;;;;;;4893965;29;20193;-53
2022/06/04 22:04:37;;;;;;;3.67;3.20;;;;;;;;;;4895289;29;20632;-54
2022/06/04 22:07:04;;;;;;;3.23;2.93;;;;;;;;;;4894217;29;20697;-53
2022/06/04 22:09:31;;;;;;;3.37;3.10;;;;;;;;;;4895119;29;20237;-54
2022/06/04 22:12:13;;;;;;;3.97;3.67;;;;;;;;;;4894398;29;20182;-53
2022/06/04 22:14:43;;;;;;;3.67;3.37;;;;;;;;;;4892556;29;20214;-54
2022/06/04 22:17:10;;;;;;;4.23;3.83;;;;;;;;;;4895164;29;20183;-54
2022/06/04 22:19:40;;;;;;;5.47;3.63;;;;;;;;;;4895051;29;20188;-52
2022/06/04 22:22:06;;;;;;;3.50;3.20;;;;;;;;;;4893178;29;20212;-55
2022/06/04 22:24:32;;;;;;;4.93;3.70;;;;;;;;;;4894086;29;20181;-54
2022/06/04 22:26:58;;;;;;;4.77;3.77;;;;;;;;;;4894127;29;20325;-53
2022/06/04 22:29:24;;;;;;;4.00;3.73;;;;;;;;;;4893730;29;20208;-53
2022/06/04 22:31:51;;;;;;;3.93;3.67;;;;;;;;;;4893855;29;20312;-53
2022/06/04 22:34:17;;;;;;;4.13;3.73;;;;;;;;;;4893828;29;20226;-53
2022/06/04 22:36:43;;;;;;;3.47;3.20;;;;;;;;;;4893036;29;20202;-52
2022/06/04 22:39:10;;;;;;;3.90;3.60;;;;;;;;;;4894800;29;20274;-53
2022/06/04 22:41:37;;;;;;;3.57;3.27;;;;;;;;;;4892225;29;20181;-51
2022/06/04 22:44:03;;;;;;;4.00;3.70;;;;;;;;;;4896997;29;20326;-54
2022/06/04 22:46:31;;;;;;;4.37;3.97;;;;;;;;;;4894318;29;20270;-54
2022/06/04 22:48:57;;;;;;;3.87;3.57;;;;;;;;;;4894573;29;20205;-53
2022/06/04 22:51:47;;;;;;;4.30;3.90;;;;;;;;;;4893583;29;20212;-54
2022/06/04 22:54:11;;;;;;;4.17;3.87;;;;;;;;;;4894101;29;20227;-55
2022/06/04 22:56:37;;;;;;;3.77;3.47;;;;;;;;;;4892727;29;20608;-53
2022/06/04 22:59:07;;;;;;;4.20;3.70;;;;;;;;;;4896433;29;20252;-55
2022/06/04 23:01:41;;;;;;;4.80;3.83;;;;;;;;;;4893746;29;20203;-54
2022/06/04 23:04:08;;;;;;;4.13;3.73;;;;;;;;;;4896448;29;20811;-55
2022/06/04 23:06:35;;;;;;;4.10;3.80;;;;;;;;;;4892758;29;20168;-54
2022/06/04 23:09:01;;;;;;;3.93;3.63;;;;;;;;;;4895787;29;20215;-55
2022/06/04 23:22:30;;;;;;;5.37;4.20;;;;;;;;;;4891345;29;20327;-56
2022/06/04 23:24:56;;;;;;;4.47;4.07;;;;;;;;;;4909602;29;20213;-57
2022/06/04 23:27:23;;;;;;;4.40;3.93;;;;;;;;;;4913126;29;20175;-55
2022/06/04 23:29:49;;;;;;;5.53;4.10;;;;;;;;;;4897795;29;20659;-57
2022/06/04 23:32:15;;;;;;;3.77;3.47;;;;;;;;;;4893752;29;20609;-56
2022/06/04 23:34:41;;;;;;;3.63;3.43;;;;;;;;;;4893689;29;20616;-56
2022/06/04 23:37:08;;;;;;;4.10;3.80;;;;;;;;;;4892947;29;20173;-54
2022/06/04 23:39:34;;;;;;;4.37;3.70;;;;;;;;;;4892256;29;20180;-56
2022/06/04 23:42:06;;;;;;;3.80;3.50;;;;;;;;;;4892158;29;20191;-55
2022/06/04 23:44:33;;;;;;;4.03;3.73;;;;;;;;;;4894085;29;20211;-55
2022/06/04 23:46:59;;;;;;;4.47;4.10;;;;;;;;;;4893775;29;20642;-55
2022/06/04 23:49:26;;;;;;;4.10;3.70;;;;;;;;;;4905461;29;20190;-55
2022/06/04 23:51:52;;;;;;;4.50;4.17;;;;;;;;;;4911833;29;20231;-53
2022/06/04 23:54:18;;;;;;;3.80;3.50;;;;;;;;;;4931047;29;20596;-52
2022/06/04 23:56:44;;;;;;;4.20;3.80;;;;;;;;;;4931523;29;20165;-55
2022/06/04 23:59:11;;;;;;;4.03;3.63;;;;;;;;;;4931339;29;20187;-55
